sensor_id;sensor_type;location;lat;lon;timestamp;P1;durP1;ratioP1;P2;durP2;ratioP2
62580;SDS011;48640;48.770;9.148;2024-01-06T00:03:22;2.53;;;1.00;;
62580;SDS011;48640;48.770;9.148;2024-01-06T00:05:49;1.35;;;0.93;;
62580;SDS011;48640;48.770;9.148;2024-01-06T00:08:16;1.73;;;1.13;;
62580;SDS011;48640;48.770;9.148;2024-01-06T00:10:44;1.55;;;0.82;;
62580;SDS011;48640;48.770;9.148;2024-01-06T00:13:11;1.05;;;0.77;;
62580;SDS011;48640;48.770;9.148;2024-01-06T00:15:39;2.75;;;0.80;;
62580;SDS011;48640;48.770;9.148;2024-01-06T00:18:06;1.40;;;0.55;;
62580;SDS011;48640;48.770;9.148;2024-01-06T00:20:33;1.65;;;0.60;;
62580;SDS011;48640;48.770;9.148;2024-01-06T00:23:00;2.25;;;0.73;;
62580;SDS011;48640;48.770;9.148;2024-01-06T00:25:29;2.13;;;0.73;;
62580;SDS011;48640;48.770;9.148;2024-01-06T00:27:56;3.42;;;1.20;;
62580;SDS011;48640;48.770;9.148;2024-01-06T00:30:23;2.17;;;0.77;;
62580;SDS011;48640;48.770;9.148;2024-01-06T00:32:51;0.60;;;0.40;;
62580;SDS011;48640;48.770;9.148;2024-01-06T00:35:18;1.13;;;0.50;;
62580;SDS011;48640;48.770;9.148;2024-01-06T00:37:45;1.30;;;0.65;;
62580;SDS011;48640;48.770;9.148;2024-01-06T00:40:12;1.75;;;0.80;;
62580;SDS011;48640;48.770;9.148;2024-01-06T00:42:39;0.98;;;0.70;;
62580;SDS011;48640;48.770;9.148;2024-01-06T00:45:06;0.73;;;0.50;;
62580;SDS011;48640;48.770;9.148;2024-01-06T00:47:34;0.40;;;0.35;;
62580;SDS011;48640;48.770;9.148;2024-01-06T00:50:02;2.20;;;0.55;;
62580;SDS011;48640;48.770;9.148;2024-01-06T00:52:29;0.45;;;0.38;;
62580;SDS011;48640;48.770;9.148;2024-01-06T00:54:57;6.70;;;1.13;;
62580;SDS011;48640;48.770;9.148;2024-01-06T00:57:23;4.63;;;1.15;;
62580;SDS011;48640;48.770;9.148;2024-01-06T00:59:50;1.60;;;0.60;;
62580;SDS011;48640;48.770;9.148;2024-01-06T01:02:17;1.80;;;0.70;;
62580;SDS011;48640;48.770;9.148;2024-01-06T01:04:44;0.60;;;0.45;;
62580;SDS011;48640;48.770;9.148;2024-01-06T01:07:13;1.17;;;0.93;;
62580;SDS011;48640;48.770;9.148;2024-01-06T01:09:41;1.13;;;0.70;;
62580;SDS011;48640;48.770;9.148;2024-01-06T01:12:07;2.17;;;0.57;;
62580;SDS011;48640;48.770;9.148;2024-01-06T01:14:35;2.10;;;0.60;;
62580;SDS011;48640;48.770;9.148;2024-01-06T01:17:01;5.30;;;1.00;;
62580;SDS011;48640;48.770;9.148;2024-01-06T01:19:29;1.50;;;0.60;;
62580;SDS011;48640;48.770;9.148;2024-01-06T01:21:56;0.75;;;0.52;;
62580;SDS011;48640;48.770;9.148;2024-01-06T01:24:24;0.73;;;0.43;;
62580;SDS011;48640;48.770;9.148;2024-01-06T01:26:52;1.42;;;0.70;;
62580;SDS011;48640;48.770;9.148;2024-01-06T01:29:19;1.98;;;1.10;;
62580;SDS011;48640;48.770;9.148;2024-01-06T01:31:47;3.58;;;0.88;;
62580;SDS011;48640;48.770;9.148;2024-01-06T01:34:14;1.67;;;1.10;;
62580;SDS011;48640;48.770;9.148;2024-01-06T01:36:44;0.40;;;0.35;;
62580;SDS011;48640;48.770;9.148;2024-01-06T01:39:11;4.38;;;1.10;;
62580;SDS011;48640;48.770;9.148;2024-01-06T01:41:41;3.17;;;1.00;;
62580;SDS011;48640;48.770;9.148;2024-01-06T01:44:08;1.30;;;0.73;;
62580;SDS011;48640;48.770;9.148;2024-01-06T01:46:35;0.88;;;0.60;;
62580;SDS011;48640;48.770;9.148;2024-01-06T01:49:03;0.65;;;0.40;;
62580;SDS011;48640;48.770;9.148;2024-01-06T01:51:31;0.50;;;0.30;;
62580;SDS011;48640;48.770;9.148;2024-01-06T01:54:00;1.38;;;0.57;;
62580;SDS011;48640;48.770;9.148;2024-01-06T01:56:29;0.88;;;0.57;;
62580;SDS011;48640;48.770;9.148;2024-01-06T01:59:00;1.88;;;0.45;;
62580;SDS011;48640;48.770;9.148;2024-01-06T02:01:32;1.02;;;0.38;;
62580;SDS011;48640;48.770;9.148;2024-01-06T02:03:59;1.70;;;0.70;;
62580;SDS011;48640;48.770;9.148;2024-01-06T02:06:26;1.10;;;0.93;;
62580;SDS011;48640;48.770;9.148;2024-01-06T02:08:55;1.33;;;0.50;;
62580;SDS011;48640;48.770;9.148;2024-01-06T02:11:22;1.23;;;0.82;;
62580;SDS011;48640;48.770;9.148;2024-01-06T02:13:49;1.52;;;0.52;;
62580;SDS011;48640;48.770;9.148;2024-01-06T02:16:18;1.67;;;0.88;;
62580;SDS011;48640;48.770;9.148;2024-01-06T02:18:45;1.27;;;0.85;;
62580;SDS011;48640;48.770;9.148;2024-01-06T02:21:13;1.42;;;0.50;;
62580;SDS011;48640;48.770;9.148;2024-01-06T02:23:42;0.77;;;0.47;;
62580;SDS011;48640;48.770;9.148;2024-01-06T02:26:10;1.38;;;1.08;;
62580;SDS011;48640;48.770;9.148;2024-01-06T02:28:38;4.22;;;0.70;;
62580;SDS011;48640;48.770;9.148;2024-01-06T02:31:05;1.45;;;0.70;;
62580;SDS011;48640;48.770;9.148;2024-01-06T02:33:35;2.50;;;0.52;;
62580;SDS011;48640;48.770;9.148;2024-01-06T02:36:02;2.65;;;0.93;;
62580;SDS011;48640;48.770;9.148;2024-01-06T02:38:30;1.92;;;0.43;;
62580;SDS011;48640;48.770;9.148;2024-01-06T02:40:58;2.33;;;0.70;;
62580;SDS011;48640;48.770;9.148;2024-01-06T02:43:25;3.22;;;0.70;;
62580;SDS011;48640;48.770;9.148;2024-01-06T02:45:52;1.80;;;0.50;;
62580;SDS011;48640;48.770;9.148;2024-01-06T02:48:20;4.72;;;1.73;;
62580;SDS011;48640;48.770;9.148;2024-01-06T02:50:48;1.00;;;0.60;;
62580;SDS011;48640;48.770;9.148;2024-01-06T02:53:15;1.33;;;0.50;;
62580;SDS011;48640;48.770;9.148;2024-01-06T02:55:43;1.77;;;0.80;;
62580;SDS011;48640;48.770;9.148;2024-01-06T02:58:11;1.15;;;0.60;;
62580;SDS011;48640;48.770;9.148;2024-01-06T03:00:38;1.90;;;0.70;;
62580;SDS011;48640;48.770;9.148;2024-01-06T03:03:04;1.50;;;0.70;;
62580;SDS011;48640;48.770;9.148;2024-01-06T03:05:32;1.70;;;0.50;;
62580;SDS011;48640;48.770;9.148;2024-01-06T03:07:59;2.13;;;0.90;;
62580;SDS011;48640;48.770;9.148;2024-01-06T03:10:28;0.88;;;0.40;;
62580;SDS011;48640;48.770;9.148;2024-01-06T03:12:55;1.48;;;0.65;;
62580;SDS011;48640;48.770;9.148;2024-01-06T03:15:24;2.05;;;0.88;;
62580;SDS011;48640;48.770;9.148;2024-01-06T03:17:51;0.55;;;0.40;;
62580;SDS011;48640;48.770;9.148;2024-01-06T03:20:18;1.60;;;0.50;;
62580;SDS011;48640;48.770;9.148;2024-01-06T03:22:46;1.50;;;0.73;;
62580;SDS011;48640;48.770;9.148;2024-01-06T03:25:14;0.90;;;0.60;;
62580;SDS011;48640;48.770;9.148;2024-01-06T03:27:41;2.15;;;0.90;;
62580;SDS011;48640;48.770;9.148;2024-01-06T03:30:09;2.10;;;0.90;;
62580;SDS011;48640;48.770;9.148;2024-01-06T03:32:38;1.30;;;0.50;;
62580;SDS011;48640;48.770;9.148;2024-01-06T03:35:05;3.03;;;0.82;;
62580;SDS011;48640;48.770;9.148;2024-01-06T03:37:34;2.40;;;0.82;;
62580;SDS011;48640;48.770;9.148;2024-01-06T03:40:01;0.80;;;0.60;;
62580;SDS011;48640;48.770;9.148;2024-01-06T03:42:28;4.10;;;0.90;;
62580;SDS011;48640;48.770;9.148;2024-01-06T03:44:56;3.20;;;1.23;;
62580;SDS011;48640;48.770;9.148;2024-01-06T03:47:23;2.55;;;0.90;;
62580;SDS011;48640;48.770;9.148;2024-01-06T03:49:52;2.90;;;1.17;;
62580;SDS011;48640;48.770;9.148;2024-01-06T03:52:19;1.13;;;0.60;;
62580;SDS011;48640;48.770;9.148;2024-01-06T03:54:48;1.42;;;0.60;;
62580;SDS011;48640;48.770;9.148;2024-01-06T03:57:14;3.72;;;0.80;;
62580;SDS011;48640;48.770;9.148;2024-01-06T03:59:42;2.10;;;0.82;;
62580;SDS011;48640;48.770;9.148;2024-01-06T04:02:09;0.80;;;0.50;;
62580;SDS011;48640;48.770;9.148;2024-01-06T04:04:36;1.65;;;0.80;;
62580;SDS011;48640;48.770;9.148;2024-01-06T04:07:06;1.83;;;0.82;;
62580;SDS011;48640;48.770;9.148;2024-01-06T04:09:33;4.53;;;1.00;;
62580;SDS011;48640;48.770;9.148;2024-01-06T04:12:00;1.38;;;0.70;;
62580;SDS011;48640;48.770;9.148;2024-01-06T04:14:27;2.35;;;0.95;;
62580;SDS011;48640;48.770;9.148;2024-01-06T04:16:54;4.45;;;1.33;;
62580;SDS011;48640;48.770;9.148;2024-01-06T04:19:21;3.20;;;1.55;;
62580;SDS011;48640;48.770;9.148;2024-01-06T04:21:48;6.68;;;3.70;;
62580;SDS011;48640;48.770;9.148;2024-01-06T04:24:17;5.05;;;1.90;;
62580;SDS011;48640;48.770;9.148;2024-01-06T04:26:44;3.90;;;2.42;;
62580;SDS011;48640;48.770;9.148;2024-01-06T04:29:11;2.20;;;1.00;;
62580;SDS011;48640;48.770;9.148;2024-01-06T04:31:38;1.30;;;0.80;;
62580;SDS011;48640;48.770;9.148;2024-01-06T04:34:06;1.38;;;0.65;;
62580;SDS011;48640;48.770;9.148;2024-01-06T04:36:33;1.08;;;0.50;;
62580;SDS011;48640;48.770;9.148;2024-01-06T04:39:00;2.15;;;0.70;;
62580;SDS011;48640;48.770;9.148;2024-01-06T04:41:28;1.45;;;0.43;;
62580;SDS011;48640;48.770;9.148;2024-01-06T04:43:55;3.97;;;1.10;;
62580;SDS011;48640;48.770;9.148;2024-01-06T04:46:22;1.20;;;0.60;;
62580;SDS011;48640;48.770;9.148;2024-01-06T04:48:49;0.93;;;0.60;;
62580;SDS011;48640;48.770;9.148;2024-01-06T04:51:16;3.58;;;0.88;;
62580;SDS011;48640;48.770;9.148;2024-01-06T04:53:43;2.08;;;0.63;;
62580;SDS011;48640;48.770;9.148;2024-01-06T04:56:10;3.97;;;1.05;;
62580;SDS011;48640;48.770;9.148;2024-01-06T04:58:38;0.82;;;0.63;;
62580;SDS011;48640;48.770;9.148;2024-01-06T05:01:08;0.80;;;0.60;;
62580;SDS011;48640;48.770;9.148;2024-01-06T05:03:37;5.45;;;0.70;;
62580;SDS011;48640;48.770;9.148;2024-01-06T05:06:03;0.95;;;0.63;;
62580;SDS011;48640;48.770;9.148;2024-01-06T05:08:30;1.98;;;0.93;;
62580;SDS011;48640;48.770;9.148;2024-01-06T05:10:57;1.35;;;0.60;;
62580;SDS011;48640;48.770;9.148;2024-01-06T05:13:24;0.98;;;0.50;;
62580;SDS011;48640;48.770;9.148;2024-01-06T05:15:52;1.15;;;0.70;;
62580;SDS011;48640;48.770;9.148;2024-01-06T05:18:19;2.35;;;0.40;;
62580;SDS011;48640;48.770;9.148;2024-01-06T05:20:46;1.55;;;0.47;;
62580;SDS011;48640;48.770;9.148;2024-01-06T05:23:13;1.48;;;0.43;;
62580;SDS011;48640;48.770;9.148;2024-01-06T05:25:40;1.35;;;1.00;;
62580;SDS011;48640;48.770;9.148;2024-01-06T05:28:07;0.90;;;0.60;;
62580;SDS011;48640;48.770;9.148;2024-01-06T05:33:05;0.65;;;0.40;;
62580;SDS011;48640;48.770;9.148;2024-01-06T05:35:35;0.95;;;0.57;;
62580;SDS011;48640;48.770;9.148;2024-01-06T05:38:02;3.30;;;0.90;;
62580;SDS011;48640;48.770;9.148;2024-01-06T05:40:29;1.77;;;0.57;;
62580;SDS011;48640;48.770;9.148;2024-01-06T05:42:56;2.00;;;0.50;;
62580;SDS011;48640;48.770;9.148;2024-01-06T05:45:23;1.05;;;0.70;;
62580;SDS011;48640;48.770;9.148;2024-01-06T05:47:49;3.00;;;0.50;;
62580;SDS011;48640;48.770;9.148;2024-01-06T05:50:18;2.53;;;0.60;;
62580;SDS011;48640;48.770;9.148;2024-01-06T05:52:45;0.68;;;0.50;;
62580;SDS011;48640;48.770;9.148;2024-01-06T05:55:13;1.00;;;0.50;;
62580;SDS011;48640;48.770;9.148;2024-01-06T05:57:42;0.95;;;0.50;;
62580;SDS011;48640;48.770;9.148;2024-01-06T06:00:09;0.90;;;0.55;;
62580;SDS011;48640;48.770;9.148;2024-01-06T06:02:37;1.02;;;0.60;;
62580;SDS011;48640;48.770;9.148;2024-01-06T06:05:04;1.35;;;0.65;;
62580;SDS011;48640;48.770;9.148;2024-01-06T06:07:33;2.22;;;0.63;;
62580;SDS011;48640;48.770;9.148;2024-01-06T06:10:04;0.82;;;0.52;;
62580;SDS011;48640;48.770;9.148;2024-01-06T06:12:32;0.30;;;0.30;;
62580;SDS011;48640;48.770;9.148;2024-01-06T06:14:59;0.68;;;0.55;;
62580;SDS011;48640;48.770;9.148;2024-01-06T06:17:26;1.05;;;0.60;;
62580;SDS011;48640;48.770;9.148;2024-01-06T06:19:53;1.45;;;0.57;;
62580;SDS011;48640;48.770;9.148;2024-01-06T06:22:20;1.05;;;0.70;;
62580;SDS011;48640;48.770;9.148;2024-01-06T06:24:50;1.38;;;0.50;;
62580;SDS011;48640;48.770;9.148;2024-01-06T06:27:16;3.65;;;0.73;;
62580;SDS011;48640;48.770;9.148;2024-01-06T06:29:44;1.00;;;0.55;;
62580;SDS011;48640;48.770;9.148;2024-01-06T06:32:12;1.67;;;0.55;;
62580;SDS011;48640;48.770;9.148;2024-01-06T06:34:39;0.95;;;0.63;;
62580;SDS011;48640;48.770;9.148;2024-01-06T06:37:05;2.88;;;0.60;;
62580;SDS011;48640;48.770;9.148;2024-01-06T06:39:33;2.40;;;0.70;;
62580;SDS011;48640;48.770;9.148;2024-01-06T06:42:01;1.00;;;0.70;;
62580;SDS011;48640;48.770;9.148;2024-01-06T06:44:28;1.27;;;0.70;;
62580;SDS011;48640;48.770;9.148;2024-01-06T06:46:56;0.77;;;0.50;;
62580;SDS011;48640;48.770;9.148;2024-01-06T06:49:23;1.35;;;0.35;;
62580;SDS011;48640;48.770;9.148;2024-01-06T06:51:49;0.93;;;0.40;;
62580;SDS011;48640;48.770;9.148;2024-01-06T06:54:16;1.60;;;0.95;;
62580;SDS011;48640;48.770;9.148;2024-01-06T06:56:43;1.23;;;0.93;;
62580;SDS011;48640;48.770;9.148;2024-01-06T06:59:12;0.57;;;0.50;;
62580;SDS011;48640;48.770;9.148;2024-01-06T07:01:39;1.33;;;0.80;;
62580;SDS011;48640;48.770;9.148;2024-01-06T07:04:06;0.73;;;0.70;;
62580;SDS011;48640;48.770;9.148;2024-01-06T07:06:33;0.40;;;0.40;;
62580;SDS011;48640;48.770;9.148;2024-01-06T07:09:00;1.77;;;0.60;;
62580;SDS011;48640;48.770;9.148;2024-01-06T07:11:28;1.50;;;0.52;;
62580;SDS011;48640;48.770;9.148;2024-01-06T07:13:55;1.65;;;0.90;;
62580;SDS011;48640;48.770;9.148;2024-01-06T07:16:23;1.45;;;0.82;;
62580;SDS011;48640;48.770;9.148;2024-01-06T07:18:50;3.65;;;0.70;;
62580;SDS011;48640;48.770;9.148;2024-01-06T07:21:16;0.98;;;0.60;;
62580;SDS011;48640;48.770;9.148;2024-01-06T07:23:43;2.35;;;0.70;;
62580;SDS011;48640;48.770;9.148;2024-01-06T07:26:10;0.90;;;0.57;;
62580;SDS011;48640;48.770;9.148;2024-01-06T07:28:37;1.23;;;0.55;;
62580;SDS011;48640;48.770;9.148;2024-01-06T07:31:04;1.25;;;0.45;;
62580;SDS011;48640;48.770;9.148;2024-01-06T07:33:32;0.45;;;0.30;;
62580;SDS011;48640;48.770;9.148;2024-01-06T07:35:59;1.00;;;0.50;;
62580;SDS011;48640;48.770;9.148;2024-01-06T07:38:26;1.17;;;0.52;;
62580;SDS011;48640;48.770;9.148;2024-01-06T07:40:53;1.10;;;0.60;;
62580;SDS011;48640;48.770;9.148;2024-01-06T07:43:20;1.00;;;0.60;;
62580;SDS011;48640;48.770;9.148;2024-01-06T07:45:47;4.13;;;1.10;;
62580;SDS011;48640;48.770;9.148;2024-01-06T07:48:15;1.23;;;0.60;;
62580;SDS011;48640;48.770;9.148;2024-01-06T07:50:44;6.10;;;0.60;;
62580;SDS011;48640;48.770;9.148;2024-01-06T07:53:11;2.70;;;0.50;;
62580;SDS011;48640;48.770;9.148;2024-01-06T07:55:38;1.40;;;0.55;;
62580;SDS011;48640;48.770;9.148;2024-01-06T07:58:05;0.68;;;0.50;;
62580;SDS011;48640;48.770;9.148;2024-01-06T08:00:32;1.25;;;0.70;;
62580;SDS011;48640;48.770;9.148;2024-01-06T08:02:59;1.42;;;0.65;;
62580;SDS011;48640;48.770;9.148;2024-01-06T08:05:27;1.00;;;0.80;;
62580;SDS011;48640;48.770;9.148;2024-01-06T08:07:56;1.45;;;0.77;;
62580;SDS011;48640;48.770;9.148;2024-01-06T08:10:23;1.58;;;1.13;;
62580;SDS011;48640;48.770;9.148;2024-01-06T08:12:49;1.90;;;0.60;;
62580;SDS011;48640;48.770;9.148;2024-01-06T08:15:16;2.58;;;0.90;;
62580;SDS011;48640;48.770;9.148;2024-01-06T08:17:43;0.93;;;0.55;;
62580;SDS011;48640;48.770;9.148;2024-01-06T08:20:10;2.10;;;0.70;;
62580;SDS011;48640;48.770;9.148;2024-01-06T08:22:37;1.80;;;0.82;;
62580;SDS011;48640;48.770;9.148;2024-01-06T08:25:07;1.25;;;0.60;;
62580;SDS011;48640;48.770;9.148;2024-01-06T08:27:35;0.95;;;0.50;;
62580;SDS011;48640;48.770;9.148;2024-01-06T08:30:03;0.75;;;0.50;;
62580;SDS011;48640;48.770;9.148;2024-01-06T08:32:31;1.10;;;0.70;;
62580;SDS011;48640;48.770;9.148;2024-01-06T08:34:58;0.80;;;0.40;;
62580;SDS011;48640;48.770;9.148;2024-01-06T08:37:25;1.10;;;0.50;;
62580;SDS011;48640;48.770;9.148;2024-01-06T08:39:51;0.98;;;0.57;;
62580;SDS011;48640;48.770;9.148;2024-01-06T08:42:20;1.88;;;0.70;;
62580;SDS011;48640;48.770;9.148;2024-01-06T08:44:47;0.47;;;0.30;;
62580;SDS011;48640;48.770;9.148;2024-01-06T08:47:14;0.75;;;0.50;;
62580;SDS011;48640;48.770;9.148;2024-01-06T08:49:40;1.08;;;0.52;;
62580;SDS011;48640;48.770;9.148;2024-01-06T08:52:07;0.88;;;0.75;;
62580;SDS011;48640;48.770;9.148;2024-01-06T08:54:34;0.77;;;0.47;;
62580;SDS011;48640;48.770;9.148;2024-01-06T08:57:01;0.95;;;0.52;;
62580;SDS011;48640;48.770;9.148;2024-01-06T08:59:31;1.17;;;0.50;;
62580;SDS011;48640;48.770;9.148;2024-01-06T09:01:57;0.82;;;0.45;;
62580;SDS011;48640;48.770;9.148;2024-01-06T09:04:24;0.77;;;0.60;;
62580;SDS011;48640;48.770;9.148;2024-01-06T09:06:51;0.75;;;0.50;;
62580;SDS011;48640;48.770;9.148;2024-01-06T09:09:18;0.52;;;0.50;;
62580;SDS011;48640;48.770;9.148;2024-01-06T09:11:45;0.65;;;0.50;;
62580;SDS011;48640;48.770;9.148;2024-01-06T09:14:12;2.30;;;0.60;;
62580;SDS011;48640;48.770;9.148;2024-01-06T09:16:40;0.85;;;0.43;;
62580;SDS011;48640;48.770;9.148;2024-01-06T09:19:07;1.00;;;0.45;;
62580;SDS011;48640;48.770;9.148;2024-01-06T09:21:34;1.08;;;0.52;;
62580;SDS011;48640;48.770;9.148;2024-01-06T09:24:01;0.80;;;0.60;;
62580;SDS011;48640;48.770;9.148;2024-01-06T09:26:31;1.33;;;0.60;;
62580;SDS011;48640;48.770;9.148;2024-01-06T09:28:59;0.93;;;0.52;;
62580;SDS011;48640;48.770;9.148;2024-01-06T09:31:26;1.08;;;0.77;;
62580;SDS011;48640;48.770;9.148;2024-01-06T09:33:59;1.55;;;0.57;;
62580;SDS011;48640;48.770;9.148;2024-01-06T09:36:28;1.00;;;0.50;;
62580;SDS011;48640;48.770;9.148;2024-01-06T09:38:56;0.77;;;0.50;;
62580;SDS011;48640;48.770;9.148;2024-01-06T09:41:23;1.30;;;0.60;;
62580;SDS011;48640;48.770;9.148;2024-01-06T09:43:50;1.73;;;0.77;;
62580;SDS011;48640;48.770;9.148;2024-01-06T09:46:23;0.90;;;0.50;;
62580;SDS011;48640;48.770;9.148;2024-01-06T09:48:52;1.20;;;0.52;;
62580;SDS011;48640;48.770;9.148;2024-01-06T09:51:21;1.67;;;0.68;;
62580;SDS011;48640;48.770;9.148;2024-01-06T09:53:53;0.98;;;0.57;;
62580;SDS011;48640;48.770;9.148;2024-01-06T09:56:23;1.17;;;0.50;;
62580;SDS011;48640;48.770;9.148;2024-01-06T09:58:53;0.55;;;0.50;;
62580;SDS011;48640;48.770;9.148;2024-01-06T10:01:20;0.98;;;0.60;;
62580;SDS011;48640;48.770;9.148;2024-01-06T10:03:47;1.10;;;0.60;;
62580;SDS011;48640;48.770;9.148;2024-01-06T10:06:14;0.77;;;0.50;;
62580;SDS011;48640;48.770;9.148;2024-01-06T10:08:43;1.35;;;0.40;;
62580;SDS011;48640;48.770;9.148;2024-01-06T10:11:10;1.25;;;0.75;;
62580;SDS011;48640;48.770;9.148;2024-01-06T10:13:38;1.00;;;0.65;;
62580;SDS011;48640;48.770;9.148;2024-01-06T10:16:06;1.48;;;0.90;;
62580;SDS011;48640;48.770;9.148;2024-01-06T10:18:33;0.90;;;0.70;;
62580;SDS011;48640;48.770;9.148;2024-01-06T10:21:03;1.05;;;0.85;;
62580;SDS011;48640;48.770;9.148;2024-01-06T10:23:32;1.92;;;0.60;;
62580;SDS011;48640;48.770;9.148;2024-01-06T10:26:03;2.42;;;0.50;;
62580;SDS011;48640;48.770;9.148;2024-01-06T10:28:30;1.27;;;0.70;;
62580;SDS011;48640;48.770;9.148;2024-01-06T10:30:57;1.23;;;0.50;;
62580;SDS011;48640;48.770;9.148;2024-01-06T10:33:25;1.08;;;0.63;;
62580;SDS011;48640;48.770;9.148;2024-01-06T10:35:52;0.80;;;0.60;;
62580;SDS011;48640;48.770;9.148;2024-01-06T10:38:19;1.00;;;0.75;;
62580;SDS011;48640;48.770;9.148;2024-01-06T10:40:55;0.80;;;0.50;;
62580;SDS011;48640;48.770;9.148;2024-01-06T10:43:25;0.75;;;0.43;;
62580;SDS011;48640;48.770;9.148;2024-01-06T10:45:54;1.27;;;0.60;;
62580;SDS011;48640;48.770;9.148;2024-01-06T10:50:51;3.00;;;0.45;;
62580;SDS011;48640;48.770;9.148;2024-01-06T10:53:20;0.73;;;0.40;;
62580;SDS011;48640;48.770;9.148;2024-01-06T10:55:49;1.05;;;0.57;;
62580;SDS011;48640;48.770;9.148;2024-01-06T10:58:17;1.42;;;1.10;;
62580;SDS011;48640;48.770;9.148;2024-01-06T11:00:47;1.17;;;0.60;;
62580;SDS011;48640;48.770;9.148;2024-01-06T11:03:14;0.63;;;0.47;;
62580;SDS011;48640;48.770;9.148;2024-01-06T11:05:41;2.42;;;0.73;;
62580;SDS011;48640;48.770;9.148;2024-01-06T11:08:08;1.02;;;0.70;;
62580;SDS011;48640;48.770;9.148;2024-01-06T11:10:36;2.53;;;0.63;;
62580;SDS011;48640;48.770;9.148;2024-01-06T11:13:05;1.35;;;0.82;;
62580;SDS011;48640;48.770;9.148;2024-01-06T11:15:44;1.13;;;0.57;;
62580;SDS011;48640;48.770;9.148;2024-01-06T11:18:35;1.17;;;0.67;;
62580;SDS011;48640;48.770;9.148;2024-01-06T11:21:17;0.73;;;0.40;;
62580;SDS011;48640;48.770;9.148;2024-01-06T11:26:52;0.70;;;0.55;;
62580;SDS011;48640;48.770;9.148;2024-01-06T11:29:21;0.65;;;0.60;;
62580;SDS011;48640;48.770;9.148;2024-01-06T11:34:49;1.33;;;0.52;;
62580;SDS011;48640;48.770;9.148;2024-01-06T11:37:23;1.13;;;0.60;;
62580;SDS011;48640;48.770;9.148;2024-01-06T11:39:51;1.83;;;0.95;;
62580;SDS011;48640;48.770;9.148;2024-01-06T11:42:18;1.15;;;0.82;;
62580;SDS011;48640;48.770;9.148;2024-01-06T11:44:49;2.33;;;1.00;;
62580;SDS011;48640;48.770;9.148;2024-01-06T11:47:17;1.58;;;0.90;;
62580;SDS011;48640;48.770;9.148;2024-01-06T11:49:51;1.70;;;1.02;;
62580;SDS011;48640;48.770;9.148;2024-01-06T11:52:21;1.42;;;0.82;;
62580;SDS011;48640;48.770;9.148;2024-01-06T11:54:50;2.78;;;1.08;;
62580;SDS011;48640;48.770;9.148;2024-01-06T11:57:18;1.40;;;0.82;;
62580;SDS011;48640;48.770;9.148;2024-01-06T11:59:45;1.92;;;0.93;;
62580;SDS011;48640;48.770;9.148;2024-01-06T12:02:12;1.20;;;0.70;;
62580;SDS011;48640;48.770;9.148;2024-01-06T12:04:39;1.67;;;0.93;;
62580;SDS011;48640;48.770;9.148;2024-01-06T12:07:09;1.55;;;1.17;;
62580;SDS011;48640;48.770;9.148;2024-01-06T12:09:38;1.00;;;0.73;;
62580;SDS011;48640;48.770;9.148;2024-01-06T12:12:05;2.33;;;1.13;;
62580;SDS011;48640;48.770;9.148;2024-01-06T12:14:34;1.77;;;1.10;;
62580;SDS011;48640;48.770;9.148;2024-01-06T12:17:01;0.95;;;0.70;;
62580;SDS011;48640;48.770;9.148;2024-01-06T12:19:29;1.25;;;0.70;;
62580;SDS011;48640;48.770;9.148;2024-01-06T12:21:56;1.65;;;0.90;;
62580;SDS011;48640;48.770;9.148;2024-01-06T12:24:26;1.60;;;1.05;;
62580;SDS011;48640;48.770;9.148;2024-01-06T12:26:55;1.13;;;0.77;;
62580;SDS011;48640;48.770;9.148;2024-01-06T12:29:25;1.50;;;0.90;;
62580;SDS011;48640;48.770;9.148;2024-01-06T12:31:54;1.92;;;0.63;;
62580;SDS011;48640;48.770;9.148;2024-01-06T12:34:21;1.98;;;1.02;;
62580;SDS011;48640;48.770;9.148;2024-01-06T12:36:48;1.23;;;0.70;;
62580;SDS011;48640;48.770;9.148;2024-01-06T12:39:21;1.25;;;0.70;;
62580;SDS011;48640;48.770;9.148;2024-01-06T12:41:51;2.00;;;1.00;;
62580;SDS011;48640;48.770;9.148;2024-01-06T12:44:18;0.60;;;0.60;;
62580;SDS011;48640;48.770;9.148;2024-01-06T12:46:45;1.45;;;0.88;;
62580;SDS011;48640;48.770;9.148;2024-01-06T12:49:12;1.63;;;1.05;;
62580;SDS011;48640;48.770;9.148;2024-01-06T12:51:39;2.22;;;1.10;;
62580;SDS011;48640;48.770;9.148;2024-01-06T12:54:06;2.05;;;1.02;;
62580;SDS011;48640;48.770;9.148;2024-01-06T12:56:36;1.02;;;0.77;;
62580;SDS011;48640;48.770;9.148;2024-01-06T12:59:05;2.95;;;1.38;;
62580;SDS011;48640;48.770;9.148;2024-01-06T13:01:33;2.70;;;1.23;;
62580;SDS011;48640;48.770;9.148;2024-01-06T13:04:00;2.85;;;1.20;;
62580;SDS011;48640;48.770;9.148;2024-01-06T13:06:27;1.67;;;1.00;;
62580;SDS011;48640;48.770;9.148;2024-01-06T13:08:56;3.30;;;2.03;;
62580;SDS011;48640;48.770;9.148;2024-01-06T13:11:23;3.05;;;1.60;;
62580;SDS011;48640;48.770;9.148;2024-01-06T13:13:53;4.27;;;1.27;;
62580;SDS011;48640;48.770;9.148;2024-01-06T13:16:21;2.95;;;1.35;;
62580;SDS011;48640;48.770;9.148;2024-01-06T13:18:48;2.03;;;1.15;;
62580;SDS011;48640;48.770;9.148;2024-01-06T13:21:15;2.17;;;1.10;;
62580;SDS011;48640;48.770;9.148;2024-01-06T13:23:43;3.03;;;1.67;;
62580;SDS011;48640;48.770;9.148;2024-01-06T13:26:10;2.63;;;1.30;;
62580;SDS011;48640;48.770;9.148;2024-01-06T13:28:38;3.17;;;1.50;;
62580;SDS011;48640;48.770;9.148;2024-01-06T13:31:04;3.17;;;1.58;;
62580;SDS011;48640;48.770;9.148;2024-01-06T13:33:33;2.97;;;1.55;;
62580;SDS011;48640;48.770;9.148;2024-01-06T13:36:00;2.72;;;1.20;;
62580;SDS011;48640;48.770;9.148;2024-01-06T13:38:27;2.30;;;1.55;;
62580;SDS011;48640;48.770;9.148;2024-01-06T13:40:54;3.08;;;2.10;;
62580;SDS011;48640;48.770;9.148;2024-01-06T13:43:21;4.55;;;2.30;;
62580;SDS011;48640;48.770;9.148;2024-01-06T13:45:48;3.10;;;1.55;;
62580;SDS011;48640;48.770;9.148;2024-01-06T13:48:15;3.50;;;1.80;;
62580;SDS011;48640;48.770;9.148;2024-01-06T13:50:45;3.08;;;1.60;;
62580;SDS011;48640;48.770;9.148;2024-01-06T13:53:11;3.88;;;1.98;;
62580;SDS011;48640;48.770;9.148;2024-01-06T13:55:39;2.58;;;1.08;;
62580;SDS011;48640;48.770;9.148;2024-01-06T13:58:06;2.65;;;1.38;;
62580;SDS011;48640;48.770;9.148;2024-01-06T14:00:35;2.70;;;1.67;;
62580;SDS011;48640;48.770;9.148;2024-01-06T14:03:02;2.28;;;1.17;;
62580;SDS011;48640;48.770;9.148;2024-01-06T14:05:31;3.00;;;1.63;;
62580;SDS011;48640;48.770;9.148;2024-01-06T14:08:01;2.80;;;1.50;;
62580;SDS011;48640;48.770;9.148;2024-01-06T14:10:28;3.05;;;1.38;;
62580;SDS011;48640;48.770;9.148;2024-01-06T14:12:56;3.22;;;1.52;;
62580;SDS011;48640;48.770;9.148;2024-01-06T14:15:23;2.90;;;1.45;;
62580;SDS011;48640;48.770;9.148;2024-01-06T14:17:51;2.30;;;1.40;;
62580;SDS011;48640;48.770;9.148;2024-01-06T14:20:18;3.40;;;1.58;;
62580;SDS011;48640;48.770;9.148;2024-01-06T14:22:46;3.72;;;2.00;;
62580;SDS011;48640;48.770;9.148;2024-01-06T14:25:15;3.28;;;1.50;;
62580;SDS011;48640;48.770;9.148;2024-01-06T14:27:46;2.92;;;1.42;;
62580;SDS011;48640;48.770;9.148;2024-01-06T14:30:13;2.50;;;1.40;;
62580;SDS011;48640;48.770;9.148;2024-01-06T14:32:40;4.80;;;1.40;;
62580;SDS011;48640;48.770;9.148;2024-01-06T14:35:07;2.28;;;1.55;;
62580;SDS011;48640;48.770;9.148;2024-01-06T14:37:36;2.47;;;1.55;;
62580;SDS011;48640;48.770;9.148;2024-01-06T14:40:03;2.10;;;1.25;;
62580;SDS011;48640;48.770;9.148;2024-01-06T14:42:33;2.83;;;1.55;;
62580;SDS011;48640;48.770;9.148;2024-01-06T14:45:01;2.23;;;1.63;;
62580;SDS011;48640;48.770;9.148;2024-01-06T14:47:29;3.72;;;1.83;;
62580;SDS011;48640;48.770;9.148;2024-01-06T14:49:57;3.35;;;1.95;;
62580;SDS011;48640;48.770;9.148;2024-01-06T14:52:24;2.65;;;1.50;;
62580;SDS011;48640;48.770;9.148;2024-01-06T14:54:51;4.30;;;2.38;;
62580;SDS011;48640;48.770;9.148;2024-01-06T14:57:18;4.40;;;2.17;;
62580;SDS011;48640;48.770;9.148;2024-01-06T14:59:46;2.80;;;1.55;;
62580;SDS011;48640;48.770;9.148;2024-01-06T15:02:13;3.03;;;1.77;;
62580;SDS011;48640;48.770;9.148;2024-01-06T15:04:41;4.03;;;2.10;;